Bluejacket, Oklahoma
Current Conditions -  °F | °C
As of 4:15 AM on Saturday 20 Dec 2014 (Local Time) from KGMJ Reporting Station
Haze Haze  
Wind Chill: 39°   Ceiling: 1300
Heat Index: 39°   Visibility: 4mi
Dew Point: 39°   Wind: 0mph
Humidity: 100%   Direction: NA
Pressure: 30.24"   Gusts: NA
Location:  36.8°N, 95.07°W
Report Text: KGMJ 201015Z AUTO 00000KT 4SM BR SCT007 OVC013 04/04 A3024 RMK AO2
Loading
Personal Weather Stations






























Interactive Weather Map New forecast layout! Learn more

10-Day Weather Forecast

Advertisements
Track Severe Weather on mobile